sensor_id;sensor_type;location;lat;lon;timestamp;temperature;humidity
42261;DHT22;27926;48.062;7.474;2022-08-30T02:59:41;15.80;99.90
42261;DHT22;27926;48.062;7.474;2022-08-30T03:07:17;15.60;99.90
42261;DHT22;27926;48.062;7.474;2022-08-30T03:32:51;15.50;99.90
42261;DHT22;27926;48.062;7.474;2022-08-30T06:09:26;18.60;99.90
42261;DHT22;27926;48.062;7.474;2022-08-30T06:11:50;18.90;99.90
42261;DHT22;27926;48.062;7.474;2022-08-30T06:14:15;19.20;99.90
42261;DHT22;27926;48.062;7.474;2022-08-30T06:16:40;19.50;99.90
42261;DHT22;27926;48.062;7.474;2022-08-30T06:19:08;19.80;99.90
42261;DHT22;27926;48.062;7.474;2022-08-30T06:21:35;20.10;99.90
42261;DHT22;27926;48.062;7.474;2022-08-30T06:24:02;20.20;99.90
42261;DHT22;27926;48.062;7.474;2022-08-30T06:26:29;20.10;99.90
42261;DHT22;27926;48.062;7.474;2022-08-30T06:28:57;20.00;99.90
42261;DHT22;27926;48.062;7.474;2022-08-30T06:31:24;20.30;99.90
42261;DHT22;27926;48.062;7.474;2022-08-30T06:33:49;20.90;99.90
42261;DHT22;27926;48.062;7.474;2022-08-30T06:36:20;21.60;99.90
42261;DHT22;27926;48.062;7.474;2022-08-30T06:38:46;22.20;99.20
42261;DHT22;27926;48.062;7.474;2022-08-30T06:41:16;22.30;99.10
42261;DHT22;27926;48.062;7.474;2022-08-30T06:43:42;22.20;98.00
42261;DHT22;27926;48.062;7.474;2022-08-30T06:46:09;22.00;97.40
42261;DHT22;27926;48.062;7.474;2022-08-30T06:48:34;21.90;97.40
42261;DHT22;27926;48.062;7.474;2022-08-30T06:50:59;21.90;97.50
42261;DHT22;27926;48.062;7.474;2022-08-30T06:53:26;21.70;97.40
42261;DHT22;27926;48.062;7.474;2022-08-30T06:55:56;21.40;97.70
42261;DHT22;27926;48.062;7.474;2022-08-30T06:58:21;21.10;98.40
42261;DHT22;27926;48.062;7.474;2022-08-30T07:00:46;21.00;98.80
42261;DHT22;27926;48.062;7.474;2022-08-30T07:03:11;21.00;98.20
42261;DHT22;27926;48.062;7.474;2022-08-30T07:05:36;21.20;98.40
42261;DHT22;27926;48.062;7.474;2022-08-30T07:08:00;21.60;97.70
42261;DHT22;27926;48.062;7.474;2022-08-30T07:10:25;21.70;96.40
42261;DHT22;27926;48.062;7.474;2022-08-30T07:12:49;22.00;96.70
42261;DHT22;27926;48.062;7.474;2022-08-30T07:15:15;21.90;96.80
42261;DHT22;27926;48.062;7.474;2022-08-30T07:17:39;22.00;96.90
42261;DHT22;27926;48.062;7.474;2022-08-30T07:20:22;21.90;96.40
42261;DHT22;27926;48.062;7.474;2022-08-30T07:22:47;22.00;96.70
42261;DHT22;27926;48.062;7.474;2022-08-30T07:25:13;22.30;96.50
42261;DHT22;27926;48.062;7.474;2022-08-30T07:27:38;22.10;95.80
42261;DHT22;27926;48.062;7.474;2022-08-30T07:30:05;22.20;96.20
42261;DHT22;27926;48.062;7.474;2022-08-30T07:32:30;22.00;96.40
42261;DHT22;27926;48.062;7.474;2022-08-30T07:34:54;22.10;96.50
42261;DHT22;27926;48.062;7.474;2022-08-30T07:37:19;22.30;95.80
42261;DHT22;27926;48.062;7.474;2022-08-30T07:39:45;22.30;95.70
42261;DHT22;27926;48.062;7.474;2022-08-30T07:42:09;22.30;95.70
42261;DHT22;27926;48.062;7.474;2022-08-30T07:44:34;22.40;95.70
42261;DHT22;27926;48.062;7.474;2022-08-30T07:46:58;22.60;95.60
42261;DHT22;27926;48.062;7.474;2022-08-30T07:49:23;22.70;95.70
42261;DHT22;27926;48.062;7.474;2022-08-30T07:51:48;22.80;95.10
42261;DHT22;27926;48.062;7.474;2022-08-30T07:54:12;23.00;94.60
42261;DHT22;27926;48.062;7.474;2022-08-30T07:56:38;22.90;94.90
42261;DHT22;27926;48.062;7.474;2022-08-30T07:59:03;22.90;94.50
42261;DHT22;27926;48.062;7.474;2022-08-30T08:01:27;22.90;94.90
42261;DHT22;27926;48.062;7.474;2022-08-30T08:03:52;23.00;94.50
42261;DHT22;27926;48.062;7.474;2022-08-30T08:06:18;23.30;95.20
42261;DHT22;27926;48.062;7.474;2022-08-30T08:08:43;23.50;94.40
42261;DHT22;27926;48.062;7.474;2022-08-30T08:11:23;23.60;94.00
42261;DHT22;27926;48.062;7.474;2022-08-30T08:13:50;23.70;94.40
42261;DHT22;27926;48.062;7.474;2022-08-30T08:16:14;24.00;94.00
42261;DHT22;27926;48.062;7.474;2022-08-30T08:18:39;24.00;93.70
42261;DHT22;27926;48.062;7.474;2022-08-30T08:21:04;24.00;93.60
42261;DHT22;27926;48.062;7.474;2022-08-30T08:23:29;23.90;93.60
42261;DHT22;27926;48.062;7.474;2022-08-30T08:25:54;23.60;93.80
42261;DHT22;27926;48.062;7.474;2022-08-30T08:28:19;23.50;94.00
42261;DHT22;27926;48.062;7.474;2022-08-30T08:30:44;23.50;94.10
42261;DHT22;27926;48.062;7.474;2022-08-30T08:33:09;23.50;94.10
42261;DHT22;27926;48.062;7.474;2022-08-30T08:35:36;23.50;94.00
42261;DHT22;27926;48.062;7.474;2022-08-30T08:38:01;23.60;94.00
42261;DHT22;27926;48.062;7.474;2022-08-30T08:40:26;23.50;94.10
42261;DHT22;27926;48.062;7.474;2022-08-30T08:50:33;23.80;94.50
42261;DHT22;27926;48.062;7.474;2022-08-30T08:53:06;23.90;94.50
42261;DHT22;27926;48.062;7.474;2022-08-30T08:55:52;24.10;94.40
42261;DHT22;27926;48.062;7.474;2022-08-30T08:58:29;24.30;93.90
42261;DHT22;27926;48.062;7.474;2022-08-30T09:00:55;24.50;94.20
42261;DHT22;27926;48.062;7.474;2022-08-30T09:03:22;24.60;94.30
42261;DHT22;27926;48.062;7.474;2022-08-30T09:05:48;24.70;94.60
42261;DHT22;27926;48.062;7.474;2022-08-30T09:08:14;24.60;94.00
42261;DHT22;27926;48.062;7.474;2022-08-30T09:10:39;24.70;94.30
42261;DHT22;27926;48.062;7.474;2022-08-30T09:13:05;24.70;93.80
42261;DHT22;27926;48.062;7.474;2022-08-30T09:15:32;24.50;93.90
42261;DHT22;27926;48.062;7.474;2022-08-30T09:18:02;24.60;94.20
42261;DHT22;27926;48.062;7.474;2022-08-30T09:20:31;24.70;94.10
42261;DHT22;27926;48.062;7.474;2022-08-30T09:22:57;24.70;93.90
42261;DHT22;27926;48.062;7.474;2022-08-30T09:25:26;24.70;94.30
42261;DHT22;27926;48.062;7.474;2022-08-30T09:27:52;24.80;94.30
42261;DHT22;27926;48.062;7.474;2022-08-30T09:30:24;24.90;94.10
42261;DHT22;27926;48.062;7.474;2022-08-30T09:35:41;25.20;94.10
42261;DHT22;27926;48.062;7.474;2022-08-30T09:38:09;25.30;93.80
42261;DHT22;27926;48.062;7.474;2022-08-30T09:40:40;25.60;94.10
42261;DHT22;27926;48.062;7.474;2022-08-30T09:43:10;25.70;93.40
42261;DHT22;27926;48.062;7.474;2022-08-30T09:45:45;25.70;93.20
42261;DHT22;27926;48.062;7.474;2022-08-30T09:48:43;25.90;92.90
42261;DHT22;27926;48.062;7.474;2022-08-30T09:53:51;26.40;93.00
42261;DHT22;27926;48.062;7.474;2022-08-30T10:05:26;26.90;92.20
42261;DHT22;27926;48.062;7.474;2022-08-30T10:08:16;27.00;92.40
42261;DHT22;27926;48.062;7.474;2022-08-30T10:11:01;26.90;92.20
42261;DHT22;27926;48.062;7.474;2022-08-30T10:16:27;27.10;92.50
42261;DHT22;27926;48.062;7.474;2022-08-30T10:19:07;27.20;92.30
42261;DHT22;27926;48.062;7.474;2022-08-30T10:24:15;27.10;92.30
42261;DHT22;27926;48.062;7.474;2022-08-30T10:26:51;26.80;92.30
42261;DHT22;27926;48.062;7.474;2022-08-30T10:29:21;26.60;92.80
42261;DHT22;27926;48.062;7.474;2022-08-30T10:31:53;26.50;92.90
42261;DHT22;27926;48.062;7.474;2022-08-30T10:36:57;26.40;92.80
42261;DHT22;27926;48.062;7.474;2022-08-30T10:39:26;26.40;92.60
42261;DHT22;27926;48.062;7.474;2022-08-30T10:42:00;26.50;92.70
42261;DHT22;27926;48.062;7.474;2022-08-30T10:44:34;26.50;92.80
42261;DHT22;27926;48.062;7.474;2022-08-30T10:50:03;26.70;92.60
42261;DHT22;27926;48.062;7.474;2022-08-30T10:55:35;26.90;92.60
42261;DHT22;27926;48.062;7.474;2022-08-30T10:58:08;27.10;92.30
42261;DHT22;27926;48.062;7.474;2022-08-30T11:14:45;27.30;92.00
42261;DHT22;27926;48.062;7.474;2022-08-30T11:19:54;27.50;92.10
42261;DHT22;27926;48.062;7.474;2022-08-30T11:22:33;27.50;92.10
42261;DHT22;27926;48.062;7.474;2022-08-30T11:25:03;27.50;92.00
42261;DHT22;27926;48.062;7.474;2022-08-30T11:27:51;27.30;92.20
42261;DHT22;27926;48.062;7.474;2022-08-30T11:33:00;27.30;92.30
42261;DHT22;27926;48.062;7.474;2022-08-30T11:35:40;27.40;92.50
42261;DHT22;27926;48.062;7.474;2022-08-30T11:46:17;28.00;91.70
42261;DHT22;27926;48.062;7.474;2022-08-30T11:54:04;27.90;91.60
42261;DHT22;27926;48.062;7.474;2022-08-30T12:10:47;28.40;91.10
42261;DHT22;27926;48.062;7.474;2022-08-30T12:24:03;28.30;90.70
42261;DHT22;27926;48.062;7.474;2022-08-30T12:26:34;28.60;91.10
42261;DHT22;27926;48.062;7.474;2022-08-30T12:31:59;28.80;91.40
42261;DHT22;27926;48.062;7.474;2022-08-30T12:34:26;28.80;90.70
42261;DHT22;27926;48.062;7.474;2022-08-30T12:36:56;28.80;91.30
42261;DHT22;27926;48.062;7.474;2022-08-30T12:39:28;29.00;90.90
42261;DHT22;27926;48.062;7.474;2022-08-30T12:41:53;29.10;90.60
42261;DHT22;27926;48.062;7.474;2022-08-30T12:44:22;29.20;90.40
42261;DHT22;27926;48.062;7.474;2022-08-30T12:46:50;29.20;90.50
42261;DHT22;27926;48.062;7.474;2022-08-30T12:49:17;29.20;90.50
42261;DHT22;27926;48.062;7.474;2022-08-30T12:51:44;29.30;90.90
42261;DHT22;27926;48.062;7.474;2022-08-30T12:54:17;29.40;90.20
42261;DHT22;27926;48.062;7.474;2022-08-30T12:56:50;29.70;90.60
42261;DHT22;27926;48.062;7.474;2022-08-30T12:59:50;29.40;90.30
42261;DHT22;27926;48.062;7.474;2022-08-30T13:02:23;29.30;89.80
42261;DHT22;27926;48.062;7.474;2022-08-30T13:04:49;29.10;89.50
42261;DHT22;27926;48.062;7.474;2022-08-30T13:09:48;29.10;89.50
42261;DHT22;27926;48.062;7.474;2022-08-30T13:12:22;29.10;90.10
42261;DHT22;27926;48.062;7.474;2022-08-30T13:14:47;29.20;89.50
42261;DHT22;27926;48.062;7.474;2022-08-30T13:17:25;29.40;88.50
42261;DHT22;27926;48.062;7.474;2022-08-30T13:19:58;29.60;88.10
42261;DHT22;27926;48.062;7.474;2022-08-30T13:22:29;29.60;88.60
42261;DHT22;27926;48.062;7.474;2022-08-30T13:24:55;29.70;87.80
42261;DHT22;27926;48.062;7.474;2022-08-30T13:27:20;29.70;87.70
42261;DHT22;27926;48.062;7.474;2022-08-30T13:29:45;29.60;88.30
42261;DHT22;27926;48.062;7.474;2022-08-30T13:32:10;29.60;88.50
42261;DHT22;27926;48.062;7.474;2022-08-30T13:34:36;29.60;88.30
42261;DHT22;27926;48.062;7.474;2022-08-30T13:37:02;29.50;88.80
42261;DHT22;27926;48.062;7.474;2022-08-30T13:39:28;29.50;89.00
42261;DHT22;27926;48.062;7.474;2022-08-30T13:41:53;29.50;88.30
42261;DHT22;27926;48.062;7.474;2022-08-30T13:44:17;29.40;88.10
42261;DHT22;27926;48.062;7.474;2022-08-30T13:46:45;29.20;89.00
42261;DHT22;27926;48.062;7.474;2022-08-30T13:49:23;29.00;89.00
42261;DHT22;27926;48.062;7.474;2022-08-30T13:51:48;29.00;88.90
42261;DHT22;27926;48.062;7.474;2022-08-30T13:54:14;28.90;89.30
42261;DHT22;27926;48.062;7.474;2022-08-30T13:56:39;28.70;89.10
42261;DHT22;27926;48.062;7.474;2022-08-30T13:59:04;28.70;89.40
42261;DHT22;27926;48.062;7.474;2022-08-30T14:01:29;28.70;89.10
42261;DHT22;27926;48.062;7.474;2022-08-30T14:03:54;28.70;88.60
42261;DHT22;27926;48.062;7.474;2022-08-30T14:06:19;28.70;89.00
42261;DHT22;27926;48.062;7.474;2022-08-30T14:08:44;28.80;88.60
42261;DHT22;27926;48.062;7.474;2022-08-30T14:11:09;28.80;88.60
42261;DHT22;27926;48.062;7.474;2022-08-30T14:13:38;28.90;88.30
42261;DHT22;27926;48.062;7.474;2022-08-30T14:16:06;29.00;88.80
42261;DHT22;27926;48.062;7.474;2022-08-30T14:18:31;29.00;88.30
42261;DHT22;27926;48.062;7.474;2022-08-30T14:20:55;29.00;88.70
42261;DHT22;27926;48.062;7.474;2022-08-30T14:23:21;29.00;88.80
42261;DHT22;27926;48.062;7.474;2022-08-30T14:25:46;29.00;89.10
42261;DHT22;27926;48.062;7.474;2022-08-30T14:28:10;29.10;89.60
42261;DHT22;27926;48.062;7.474;2022-08-30T14:30:36;29.00;89.70
42261;DHT22;27926;48.062;7.474;2022-08-30T14:33:02;29.00;89.40
42261;DHT22;27926;48.062;7.474;2022-08-30T14:35:27;29.00;89.80
42261;DHT22;27926;48.062;7.474;2022-08-30T14:37:52;28.90;89.40
42261;DHT22;27926;48.062;7.474;2022-08-30T14:40:17;28.90;89.10
42261;DHT22;27926;48.062;7.474;2022-08-30T14:42:42;28.80;89.90
42261;DHT22;27926;48.062;7.474;2022-08-30T14:45:09;28.80;89.90
42261;DHT22;27926;48.062;7.474;2022-08-30T14:47:35;28.70;90.10
42261;DHT22;27926;48.062;7.474;2022-08-30T14:50:00;28.70;90.30
42261;DHT22;27926;48.062;7.474;2022-08-30T14:52:26;28.60;90.00
42261;DHT22;27926;48.062;7.474;2022-08-30T14:54:51;28.60;90.20
42261;DHT22;27926;48.062;7.474;2022-08-30T14:57:16;28.60;90.60
42261;DHT22;27926;48.062;7.474;2022-08-30T14:59:43;28.50;91.20
42261;DHT22;27926;48.062;7.474;2022-08-30T15:02:08;28.50;91.10
42261;DHT22;27926;48.062;7.474;2022-08-30T15:04:33;28.40;91.10
42261;DHT22;27926;48.062;7.474;2022-08-30T15:06:58;28.30;90.70
42261;DHT22;27926;48.062;7.474;2022-08-30T15:09:23;28.30;90.80
42261;DHT22;27926;48.062;7.474;2022-08-30T15:11:48;28.20;91.00
42261;DHT22;27926;48.062;7.474;2022-08-30T15:14:13;28.20;91.30
42261;DHT22;27926;48.062;7.474;2022-08-30T15:16:38;28.10;91.30
42261;DHT22;27926;48.062;7.474;2022-08-30T15:19:04;28.10;91.60
42261;DHT22;27926;48.062;7.474;2022-08-30T15:21:41;28.00;91.50
42261;DHT22;27926;48.062;7.474;2022-08-30T15:24:09;28.00;91.60
42261;DHT22;27926;48.062;7.474;2022-08-30T15:26:34;28.00;91.70
42261;DHT22;27926;48.062;7.474;2022-08-30T15:28:59;28.00;91.80
42261;DHT22;27926;48.062;7.474;2022-08-30T15:31:26;28.00;91.90
42261;DHT22;27926;48.062;7.474;2022-08-30T15:33:55;28.00;92.80
42261;DHT22;27926;48.062;7.474;2022-08-30T15:36:19;27.80;92.10
42261;DHT22;27926;48.062;7.474;2022-08-30T15:38:44;27.80;92.60
42261;DHT22;27926;48.062;7.474;2022-08-30T15:41:11;27.70;92.60
42261;DHT22;27926;48.062;7.474;2022-08-30T15:43:36;27.70;92.70
42261;DHT22;27926;48.062;7.474;2022-08-30T15:46:15;27.70;93.40
42261;DHT22;27926;48.062;7.474;2022-08-30T15:48:40;27.60;92.90
42261;DHT22;27926;48.062;7.474;2022-08-30T15:51:05;27.60;93.00
42261;DHT22;27926;48.062;7.474;2022-08-30T15:53:32;27.50;93.20
42261;DHT22;27926;48.062;7.474;2022-08-30T15:55:57;27.50;93.20
42261;DHT22;27926;48.062;7.474;2022-08-30T15:58:21;27.50;93.60
42261;DHT22;27926;48.062;7.474;2022-08-30T16:00:46;27.50;93.80
42261;DHT22;27926;48.062;7.474;2022-08-30T16:03:10;27.50;94.00
42261;DHT22;27926;48.062;7.474;2022-08-30T16:05:35;27.50;93.80
42261;DHT22;27926;48.062;7.474;2022-08-30T16:08:01;27.50;93.80
42261;DHT22;27926;48.062;7.474;2022-08-30T16:10:26;27.40;93.70
42261;DHT22;27926;48.062;7.474;2022-08-30T16:12:51;27.40;93.80
42261;DHT22;27926;48.062;7.474;2022-08-30T16:15:16;27.30;93.60
42261;DHT22;27926;48.062;7.474;2022-08-30T16:17:40;27.20;93.10
42261;DHT22;27926;48.062;7.474;2022-08-30T16:20:06;27.00;92.90
42261;DHT22;27926;48.062;7.474;2022-08-30T16:22:31;26.90;93.00
42261;DHT22;27926;48.062;7.474;2022-08-30T16:24:55;26.80;93.30
42261;DHT22;27926;48.062;7.474;2022-08-30T16:27:20;26.80;93.60
42261;DHT22;27926;48.062;7.474;2022-08-30T16:29:47;26.70;93.70
42261;DHT22;27926;48.062;7.474;2022-08-30T16:32:11;26.50;93.50
42261;DHT22;27926;48.062;7.474;2022-08-30T16:34:36;26.50;93.70
42261;DHT22;27926;48.062;7.474;2022-08-30T16:37:01;26.40;93.70
42261;DHT22;27926;48.062;7.474;2022-08-30T16:39:25;26.40;94.00
42261;DHT22;27926;48.062;7.474;2022-08-30T16:41:50;26.30;94.30
42261;DHT22;27926;48.062;7.474;2022-08-30T16:44:15;26.30;94.60
42261;DHT22;27926;48.062;7.474;2022-08-30T16:46:40;26.20;94.80
42261;DHT22;27926;48.062;7.474;2022-08-30T16:49:05;26.10;94.70
42261;DHT22;27926;48.062;7.474;2022-08-30T16:51:31;26.00;94.90
42261;DHT22;27926;48.062;7.474;2022-08-30T16:53:59;25.90;94.90
42261;DHT22;27926;48.062;7.474;2022-08-30T16:56:26;25.90;94.80
42261;DHT22;27926;48.062;7.474;2022-08-30T16:58:53;26.70;95.20
42261;DHT22;27926;48.062;7.474;2022-08-30T17:01:19;25.70;95.10
42261;DHT22;27926;48.062;7.474;2022-08-30T17:03:44;25.70;95.10
42261;DHT22;27926;48.062;7.474;2022-08-30T17:06:09;25.60;95.00
42261;DHT22;27926;48.062;7.474;2022-08-30T17:08:33;25.50;95.10
42261;DHT22;27926;48.062;7.474;2022-08-30T17:10:58;25.50;95.10
42261;DHT22;27926;48.062;7.474;2022-08-30T17:13:23;25.40;95.20
42261;DHT22;27926;48.062;7.474;2022-08-30T17:15:48;25.40;95.20
42261;DHT22;27926;48.062;7.474;2022-08-30T17:18:15;25.30;95.20
42261;DHT22;27926;48.062;7.474;2022-08-30T17:20:40;25.30;95.60
42261;DHT22;27926;48.062;7.474;2022-08-30T17:23:05;25.20;95.40
42261;DHT22;27926;48.062;7.474;2022-08-30T17:25:30;25.20;95.50
42261;DHT22;27926;48.062;7.474;2022-08-30T17:27:55;25.10;95.50
42261;DHT22;27926;48.062;7.474;2022-08-30T17:30:20;25.10;95.80
42261;DHT22;27926;48.062;7.474;2022-08-30T17:32:44;25.00;95.80
42261;DHT22;27926;48.062;7.474;2022-08-30T17:35:10;25.00;95.80
42261;DHT22;27926;48.062;7.474;2022-08-30T17:37:34;24.90;95.80
42261;DHT22;27926;48.062;7.474;2022-08-30T17:39:59;24.90;95.80
42261;DHT22;27926;48.062;7.474;2022-08-30T17:42:25;24.90;95.90
42261;DHT22;27926;48.062;7.474;2022-08-30T17:44:49;24.80;96.00
42261;DHT22;27926;48.062;7.474;2022-08-30T17:47:14;24.80;95.90
42261;DHT22;27926;48.062;7.474;2022-08-30T17:49:39;24.70;96.00
42261;DHT22;27926;48.062;7.474;2022-08-30T17:52:03;24.70;95.80
42261;DHT22;27926;48.062;7.474;2022-08-30T17:54:30;24.70;95.70
42261;DHT22;27926;48.062;7.474;2022-08-30T17:56:56;24.60;95.70
42261;DHT22;27926;48.062;7.474;2022-08-30T17:59:22;24.60;95.50
42261;DHT22;27926;48.062;7.474;2022-08-30T18:01:47;24.60;95.60
42261;DHT22;27926;48.062;7.474;2022-08-30T18:04:12;24.60;95.50
42261;DHT22;27926;48.062;7.474;2022-08-30T18:06:38;24.50;95.60
42261;DHT22;27926;48.062;7.474;2022-08-30T18:09:04;24.50;96.00
42261;DHT22;27926;48.062;7.474;2022-08-30T18:11:29;24.40;96.50
42261;DHT22;27926;48.062;7.474;2022-08-30T18:13:54;24.30;96.50
42261;DHT22;27926;48.062;7.474;2022-08-30T18:16:18;24.20;96.50
42261;DHT22;27926;48.062;7.474;2022-08-30T18:18:43;24.10;96.60
42261;DHT22;27926;48.062;7.474;2022-08-30T18:21:13;24.10;96.70
42261;DHT22;27926;48.062;7.474;2022-08-30T18:23:38;24.00;96.60
42261;DHT22;27926;48.062;7.474;2022-08-30T18:26:02;24.00;96.40
42261;DHT22;27926;48.062;7.474;2022-08-30T18:28:27;23.90;96.40
42261;DHT22;27926;48.062;7.474;2022-08-30T18:30:53;23.90;96.30
42261;DHT22;27926;48.062;7.474;2022-08-30T18:33:23;23.90;96.00
42261;DHT22;27926;48.062;7.474;2022-08-30T18:35:48;23.90;95.80
42261;DHT22;27926;48.062;7.474;2022-08-30T18:38:13;23.80;96.20
42261;DHT22;27926;48.062;7.474;2022-08-30T18:40:38;23.80;96.20
42261;DHT22;27926;48.062;7.474;2022-08-30T18:43:03;23.70;96.40
42261;DHT22;27926;48.062;7.474;2022-08-30T18:45:31;23.60;96.80
42261;DHT22;27926;48.062;7.474;2022-08-30T18:47:55;23.50;97.10
42261;DHT22;27926;48.062;7.474;2022-08-30T18:50:20;23.50;97.00
42261;DHT22;27926;48.062;7.474;2022-08-30T18:52:44;23.40;97.30
42261;DHT22;27926;48.062;7.474;2022-08-30T18:55:09;23.30;97.80
42261;DHT22;27926;48.062;7.474;2022-08-30T18:57:34;23.20;98.10
42261;DHT22;27926;48.062;7.474;2022-08-30T18:59:59;23.20;97.40
42261;DHT22;27926;48.062;7.474;2022-08-30T19:02:23;23.20;97.90
42261;DHT22;27926;48.062;7.474;2022-08-30T19:04:48;23.10;97.20
42261;DHT22;27926;48.062;7.474;2022-08-30T19:07:15;23.10;97.20
42261;DHT22;27926;48.062;7.474;2022-08-30T19:09:40;23.80;98.00
42261;DHT22;27926;48.062;7.474;2022-08-30T19:12:05;23.10;97.50
42261;DHT22;27926;48.062;7.474;2022-08-30T19:14:30;23.00;97.80
42261;DHT22;27926;48.062;7.474;2022-08-30T19:16:56;23.00;98.00
42261;DHT22;27926;48.062;7.474;2022-08-30T19:19:21;22.90;98.10
42261;DHT22;27926;48.062;7.474;2022-08-30T19:21:45;22.90;98.30
42261;DHT22;27926;48.062;7.474;2022-08-30T19:24:10;22.80;98.80
42261;DHT22;27926;48.062;7.474;2022-08-30T19:26:35;22.80;99.10
42261;DHT22;27926;48.062;7.474;2022-08-30T19:29:04;22.70;99.20
42261;DHT22;27926;48.062;7.474;2022-08-30T19:31:29;22.60;99.50
42261;DHT22;27926;48.062;7.474;2022-08-30T19:33:54;22.50;99.60
42261;DHT22;27926;48.062;7.474;2022-08-30T19:36:19;22.50;99.80
42261;DHT22;27926;48.062;7.474;2022-08-30T19:38:43;22.40;99.50
42261;DHT22;27926;48.062;7.474;2022-08-30T19:41:08;22.50;99.90
42261;DHT22;27926;48.062;7.474;2022-08-30T19:43:33;22.50;99.70
42261;DHT22;27926;48.062;7.474;2022-08-30T19:45:58;22.50;99.80
42261;DHT22;27926;48.062;7.474;2022-08-30T19:48:24;22.50;99.90
42261;DHT22;27926;48.062;7.474;2022-08-30T19:50:49;22.60;99.90
42261;DHT22;27926;48.062;7.474;2022-08-30T19:53:14;22.50;99.50
42261;DHT22;27926;48.062;7.474;2022-08-30T19:55:39;22.50;99.30
42261;DHT22;27926;48.062;7.474;2022-08-30T19:58:04;22.60;99.10
42261;DHT22;27926;48.062;7.474;2022-08-30T20:00:29;22.60;99.00
42261;DHT22;27926;48.062;7.474;2022-08-30T20:02:53;22.60;99.00
42261;DHT22;27926;48.062;7.474;2022-08-30T20:05:18;22.60;99.10
42261;DHT22;27926;48.062;7.474;2022-08-30T20:07:43;22.60;99.20
42261;DHT22;27926;48.062;7.474;2022-08-30T20:10:11;22.50;99.40
42261;DHT22;27926;48.062;7.474;2022-08-30T20:12:37;22.50;99.70
42261;DHT22;27926;48.062;7.474;2022-08-30T20:15:04;22.50;99.90
42261;DHT22;27926;48.062;7.474;2022-08-30T20:17:32;22.40;99.90
42261;DHT22;27926;48.062;7.474;2022-08-30T20:19:57;22.40;99.90
42261;DHT22;27926;48.062;7.474;2022-08-30T20:22:24;22.30;99.90
42261;DHT22;27926;48.062;7.474;2022-08-30T20:24:49;22.30;99.90
42261;DHT22;27926;48.062;7.474;2022-08-30T20:27:14;22.20;99.90
42261;DHT22;27926;48.062;7.474;2022-08-30T20:29:38;22.20;99.90
42261;DHT22;27926;48.062;7.474;2022-08-30T20:32:03;22.10;99.90
42261;DHT22;27926;48.062;7.474;2022-08-30T20:34:28;22.10;99.90
42261;DHT22;27926;48.062;7.474;2022-08-30T20:36:54;22.00;99.90
42261;DHT22;27926;48.062;7.474;2022-08-30T20:39:19;22.00;99.90
42261;DHT22;27926;48.062;7.474;2022-08-30T20:41:44;21.90;99.90
42261;DHT22;27926;48.062;7.474;2022-08-30T20:44:08;21.90;99.90
42261;DHT22;27926;48.062;7.474;2022-08-30T20:46:33;21.90;99.90
42261;DHT22;27926;48.062;7.474;2022-08-30T20:48:58;21.90;99.90
42261;DHT22;27926;48.062;7.474;2022-08-30T20:51:24;21.80;99.90
42261;DHT22;27926;48.062;7.474;2022-08-30T20:53:50;21.80;99.90
42261;DHT22;27926;48.062;7.474;2022-08-30T20:56:18;21.80;99.90
42261;DHT22;27926;48.062;7.474;2022-08-30T20:58:43;21.80;99.90
42261;DHT22;27926;48.062;7.474;2022-08-30T21:01:09;22.30;99.90
42261;DHT22;27926;48.062;7.474;2022-08-30T21:03:35;21.70;99.90
42261;DHT22;27926;48.062;7.474;2022-08-30T21:06:00;21.70;99.90
42261;DHT22;27926;48.062;7.474;2022-08-30T21:08:25;21.70;99.90
42261;DHT22;27926;48.062;7.474;2022-08-30T21:10:49;21.70;99.90
42261;DHT22;27926;48.062;7.474;2022-08-30T21:13:14;21.60;99.90
42261;DHT22;27926;48.062;7.474;2022-08-30T21:15:39;21.60;99.90
42261;DHT22;27926;48.062;7.474;2022-08-30T21:18:05;21.60;99.90
42261;DHT22;27926;48.062;7.474;2022-08-30T21:20:30;21.60;99.90
42261;DHT22;27926;48.062;7.474;2022-08-30T21:22:55;21.50;99.90
42261;DHT22;27926;48.062;7.474;2022-08-30T21:25:19;21.50;99.90
42261;DHT22;27926;48.062;7.474;2022-08-30T21:27:44;21.50;99.90
42261;DHT22;27926;48.062;7.474;2022-08-30T21:30:11;21.50;99.90
42261;DHT22;27926;48.062;7.474;2022-08-30T21:32:35;21.40;99.90
42261;DHT22;27926;48.062;7.474;2022-08-30T21:35:00;21.40;99.90
42261;DHT22;27926;48.062;7.474;2022-08-30T21:37:44;21.30;99.90
42261;DHT22;27926;48.062;7.474;2022-08-30T21:40:09;21.30;99.90
42261;DHT22;27926;48.062;7.474;2022-08-30T21:42:36;21.30;99.90
42261;DHT22;27926;48.062;7.474;2022-08-30T21:45:00;21.20;99.90
42261;DHT22;27926;48.062;7.474;2022-08-30T21:47:25;21.20;99.90
42261;DHT22;27926;48.062;7.474;2022-08-30T21:49:49;21.20;99.90
42261;DHT22;27926;48.062;7.474;2022-08-30T21:52:14;21.20;99.90
42261;DHT22;27926;48.062;7.474;2022-08-30T21:54:39;21.20;99.90
42261;DHT22;27926;48.062;7.474;2022-08-30T21:57:03;21.20;99.90
42261;DHT22;27926;48.062;7.474;2022-08-30T21:59:28;21.20;99.90
42261;DHT22;27926;48.062;7.474;2022-08-30T22:01:53;21.20;99.90
42261;DHT22;27926;48.062;7.474;2022-08-30T22:04:18;21.30;99.90
42261;DHT22;27926;48.062;7.474;2022-08-30T22:06:44;21.30;99.90
42261;DHT22;27926;48.062;7.474;2022-08-30T22:09:12;21.30;99.90
42261;DHT22;27926;48.062;7.474;2022-08-30T22:11:37;21.30;99.90
42261;DHT22;27926;48.062;7.474;2022-08-30T22:14:03;21.30;99.90
42261;DHT22;27926;48.062;7.474;2022-08-30T22:16:28;21.30;99.90
42261;DHT22;27926;48.062;7.474;2022-08-30T22:18:53;21.20;99.90
42261;DHT22;27926;48.062;7.474;2022-08-30T22:21:22;21.20;99.90
42261;DHT22;27926;48.062;7.474;2022-08-30T22:23:48;21.10;99.90
42261;DHT22;27926;48.062;7.474;2022-08-30T22:26:14;21.00;99.90
42261;DHT22;27926;48.062;7.474;2022-08-30T22:28:39;21.00;99.90
42261;DHT22;27926;48.062;7.474;2022-08-30T22:31:06;20.90;99.90
42261;DHT22;27926;48.062;7.474;2022-08-30T22:33:31;20.90;99.90
42261;DHT22;27926;48.062;7.474;2022-08-30T22:35:56;20.80;99.90
42261;DHT22;27926;48.062;7.474;2022-08-30T22:38:21;20.80;99.90
42261;DHT22;27926;48.062;7.474;2022-08-30T22:40:48;20.60;99.90
42261;DHT22;27926;48.062;7.474;2022-08-30T22:43:14;20.50;99.90
42261;DHT22;27926;48.062;7.474;2022-08-30T22:45:38;20.30;99.90
42261;DHT22;27926;48.062;7.474;2022-08-30T22:48:04;20.10;99.90
42261;DHT22;27926;48.062;7.474;2022-08-30T22:50:29;19.90;99.90
42261;DHT22;27926;48.062;7.474;2022-08-30T22:52:53;19.80;99.90
42261;DHT22;27926;48.062;7.474;2022-08-30T22:55:18;19.60;99.90
42261;DHT22;27926;48.062;7.474;2022-08-30T22:57:43;19.50;99.90
42261;DHT22;27926;48.062;7.474;2022-08-30T23:00:12;19.50;99.90
42261;DHT22;27926;48.062;7.474;2022-08-30T23:02:38;19.40;99.90
42261;DHT22;27926;48.062;7.474;2022-08-30T23:05:04;19.40;99.90
42261;DHT22;27926;48.062;7.474;2022-08-30T23:07:28;19.30;99.90